createdAt,value
2018-03-04T00:01:49.067Z,4.33
2018-03-04T00:06:41.677Z,4.34
2018-03-04T00:09:09.215Z,4.35
2018-03-04T00:11:36.713Z,4.36
2018-03-04T00:14:04.277Z,4.36
2018-03-04T00:16:31.780Z,4.39
2018-03-04T00:18:59.256Z,4.41
2018-03-04T00:21:26.795Z,4.44
2018-03-04T00:23:54.300Z,4.46
2018-03-04T00:26:21.803Z,4.47
2018-03-04T00:28:49.316Z,4.49
2018-03-04T00:31:16.811Z,4.50
2018-03-04T00:33:44.362Z,4.53
2018-03-04T00:36:11.859Z,4.54
2018-03-04T00:38:39.359Z,4.55
2018-03-04T00:41:06.849Z,4.56
2018-03-04T00:43:34.351Z,4.56
2018-03-04T00:46:01.854Z,4.56
2018-03-04T00:48:29.384Z,4.56
2018-03-04T00:50:56.893Z,4.56
2018-03-04T00:53:24.411Z,4.55
2018-03-04T00:55:51.895Z,4.55
2018-03-04T00:58:19.388Z,4.55
2018-03-04T01:00:46.883Z,4.55
2018-03-04T01:03:14.401Z,4.55
2018-03-04T01:05:41.884Z,4.56
2018-03-04T01:08:09.372Z,4.58
2018-03-04T01:10:36.886Z,4.59
2018-03-04T01:13:04.408Z,4.59
2018-03-04T01:15:31.893Z,4.60
2018-03-04T01:17:59.422Z,4.61
2018-03-04T01:20:26.931Z,4.59
2018-03-04T01:22:54.413Z,4.60
2018-03-04T01:25:21.931Z,4.59
2018-03-04T01:27:49.440Z,4.59
2018-03-04T01:30:16.939Z,4.61
2018-03-04T01:32:44.420Z,4.61
2018-03-04T01:35:11.916Z,4.63
2018-03-04T01:37:39.392Z,4.64
2018-03-04T01:40:06.883Z,4.66
2018-03-04T01:42:34.399Z,4.68
2018-03-04T01:45:01.904Z,4.70
2018-03-04T01:47:29.392Z,4.71
2018-03-04T01:49:56.905Z,4.71
2018-03-04T01:52:24.399Z,4.72
2018-03-04T01:54:51.928Z,4.71
2018-03-04T01:57:19.416Z,4.70
2018-03-04T01:59:46.903Z,4.70
2018-03-04T02:02:14.413Z,4.70
2018-03-04T02:04:41.901Z,4.71
2018-03-04T02:07:09.416Z,4.73
2018-03-04T02:09:36.899Z,4.75
2018-03-04T02:12:04.394Z,4.77
2018-03-04T02:14:31.887Z,4.78
2018-03-04T02:16:59.410Z,4.79
2018-03-04T02:19:26.936Z,4.79
2018-03-04T02:21:54.432Z,4.80
2018-03-04T02:24:21.943Z,4.82
2018-03-04T02:26:49.446Z,4.82
2018-03-04T02:29:16.934Z,4.83
2018-03-04T02:31:44.444Z,4.84
2018-03-04T02:34:11.955Z,4.84
2018-03-04T02:36:39.467Z,4.86
2018-03-04T02:39:06.983Z,4.87
2018-03-04T02:41:34.495Z,4.89
2018-03-04T02:44:02.006Z,4.90
2018-03-04T02:46:29.537Z,4.92
2018-03-04T02:48:57.024Z,4.93
2018-03-04T02:51:24.519Z,4.93
2018-03-04T02:53:51.998Z,4.95
2018-03-04T02:56:19.494Z,4.96
2018-03-04T02:58:47.009Z,4.97
2018-03-04T03:01:14.524Z,4.98
2018-03-04T03:03:42.053Z,4.99
2018-03-04T03:06:09.531Z,5.01
2018-03-04T03:08:37.036Z,5.02
2018-03-04T03:11:04.547Z,5.03
2018-03-04T03:13:32.044Z,5.04
2018-03-04T03:15:59.556Z,5.06
2018-03-04T03:18:27.044Z,5.07
2018-03-04T03:20:54.538Z,5.08
2018-03-04T03:23:22.082Z,5.10
2018-03-04T03:25:49.573Z,5.11
2018-03-04T03:28:17.067Z,5.13
2018-03-04T03:30:44.576Z,5.16
2018-03-04T03:33:12.087Z,5.18
2018-03-04T03:35:39.594Z,5.19
2018-03-04T03:38:07.082Z,5.20
2018-03-04T03:40:34.590Z,5.23
2018-03-04T03:43:02.107Z,5.23
2018-03-04T03:45:29.598Z,5.23
2018-03-04T03:47:57.091Z,5.23
2018-03-04T03:50:24.591Z,5.24
2018-03-04T03:52:52.086Z,5.24
2018-03-04T03:55:19.586Z,5.26
2018-03-04T03:57:47.099Z,5.25
2018-03-04T04:00:14.610Z,5.26
2018-03-04T04:02:42.112Z,5.26
2018-03-04T04:05:09.612Z,5.27
2018-03-04T04:07:37.105Z,5.28
2018-03-04T04:10:04.602Z,5.29
2018-03-04T04:12:32.112Z,5.29
2018-03-04T04:14:59.699Z,5.29
2018-03-04T04:17:27.235Z,5.29
2018-03-04T04:19:54.735Z,5.29
2018-03-04T04:22:22.225Z,5.29
2018-03-04T04:24:49.766Z,5.29
2018-03-04T04:27:17.271Z,5.29
2018-03-04T04:29:44.763Z,5.29
2018-03-04T04:32:12.291Z,5.27
2018-03-04T04:34:39.785Z,5.26
2018-03-04T04:37:07.303Z,5.24
2018-03-04T04:39:34.813Z,5.23
2018-03-04T04:42:02.344Z,5.22
2018-03-04T04:44:29.835Z,5.19
2018-03-04T04:46:57.323Z,5.18
2018-03-04T04:49:24.830Z,5.16
2018-03-04T04:51:52.904Z,5.14
2018-03-04T04:54:20.391Z,5.14
2018-03-04T04:56:47.904Z,5.14
2018-03-04T04:59:15.383Z,5.14
2018-03-04T05:01:42.914Z,5.14
2018-03-04T05:04:10.406Z,5.14
2018-03-04T05:06:37.935Z,5.15
2018-03-04T05:09:05.482Z,5.16
2018-03-04T05:11:32.983Z,5.18
2018-03-04T05:14:00.449Z,5.20
2018-03-04T05:16:27.948Z,5.21
2018-03-04T05:18:55.432Z,5.23
2018-03-04T05:21:22.927Z,5.25
2018-03-04T05:23:50.426Z,5.26
2018-03-04T05:26:17.911Z,5.26
2018-03-04T05:28:45.413Z,5.26
2018-03-04T05:31:12.905Z,5.26
2018-03-04T05:33:40.399Z,5.26
2018-03-04T05:36:07.879Z,5.26
2018-03-04T05:38:35.367Z,5.26
2018-03-04T05:41:02.863Z,5.26
2018-03-04T05:43:30.340Z,5.26
2018-03-04T05:45:57.828Z,5.27
2018-03-04T05:48:25.303Z,5.28
2018-03-04T05:50:52.750Z,5.29
2018-03-04T05:53:20.247Z,5.31
2018-03-04T05:55:47.738Z,5.33
2018-03-04T05:58:15.223Z,5.36
2018-03-04T06:00:42.735Z,5.37
2018-03-04T06:03:10.219Z,5.39
2018-03-04T06:05:37.704Z,5.41
2018-03-04T06:08:05.195Z,5.41
2018-03-04T06:10:32.690Z,5.42
2018-03-04T06:13:00.203Z,5.43
2018-03-04T06:15:27.677Z,5.43
2018-03-04T06:17:55.163Z,5.43
2018-03-04T06:20:22.642Z,5.43
2018-03-04T06:22:50.143Z,5.43
2018-03-04T06:25:17.620Z,5.45
2018-03-04T06:27:45.138Z,5.45
2018-03-04T06:30:12.627Z,5.46
2018-03-04T06:32:40.104Z,5.48
2018-03-04T06:35:07.603Z,5.51
2018-03-04T06:37:35.091Z,5.52
2018-03-04T06:40:02.596Z,5.54
2018-03-04T06:42:30.094Z,5.56
2018-03-04T06:44:57.589Z,5.58
2018-03-04T06:47:25.087Z,5.60
2018-03-04T06:49:52.580Z,5.62
2018-03-04T06:52:20.083Z,5.63
2018-03-04T06:54:47.559Z,5.65
2018-03-04T06:57:15.052Z,5.66
2018-03-04T06:59:42.581Z,5.69
2018-03-04T07:02:10.080Z,5.70
2018-03-04T07:04:37.604Z,5.72
2018-03-04T07:07:05.088Z,5.74
2018-03-04T07:09:32.582Z,5.76
2018-03-04T07:12:00.068Z,5.77
2018-03-04T07:14:27.547Z,5.77
2018-03-04T07:16:55.039Z,5.77
2018-03-04T07:19:22.516Z,5.77
2018-03-04T07:21:50.000Z,5.78
2018-03-04T07:24:17.483Z,5.79
2018-03-04T07:26:44.985Z,5.80
2018-03-04T07:29:12.503Z,5.79
2018-03-04T07:31:40.055Z,5.79
2018-03-04T07:34:07.557Z,5.81
2018-03-04T07:36:35.036Z,5.83
2018-03-04T07:39:02.518Z,5.83
2018-03-04T07:41:30.209Z,5.85
2018-03-04T07:43:57.778Z,5.85
2018-03-04T07:46:25.274Z,5.84
2018-03-04T07:48:52.785Z,5.85
2018-03-04T07:51:20.292Z,5.86
2018-03-04T07:53:47.763Z,5.88
2018-03-04T07:56:15.242Z,5.90
2018-03-04T07:58:42.715Z,5.90
2018-03-04T08:01:10.200Z,5.92
2018-03-04T08:06:03.788Z,5.96
2018-03-04T08:08:31.270Z,5.97
2018-03-04T08:10:58.774Z,6.00
2018-03-04T08:13:26.272Z,6.03
2018-03-04T08:15:53.795Z,6.04
2018-03-04T08:18:22.928Z,6.06
2018-03-04T08:20:50.437Z,6.07
2018-03-04T08:23:17.954Z,6.08
2018-03-04T08:25:45.452Z,6.08
2018-03-04T08:28:24.620Z,6.09
2018-03-04T08:30:52.115Z,6.11
2018-03-04T08:33:19.604Z,6.13
2018-03-04T08:35:47.103Z,6.16
2018-03-04T08:38:14.611Z,6.19
2018-03-04T18:05:13.861Z,7.66
2018-03-04T18:07:42.077Z,7.64
2018-03-04T18:10:09.625Z,7.62
2018-03-04T18:12:38.410Z,7.60
2018-03-04T18:15:14.825Z,7.59
2018-03-04T18:17:43.293Z,7.57
2018-03-04T18:20:11.026Z,7.55
2018-03-04T18:22:39.123Z,7.54
2018-03-04T18:25:06.993Z,7.52
2018-03-04T18:27:34.744Z,7.52
2018-03-04T18:30:02.303Z,7.51
2018-03-04T18:32:29.904Z,7.50
2018-03-04T18:34:57.422Z,7.50
2018-03-04T18:37:25.064Z,7.48
2018-03-04T18:39:52.623Z,7.48
2018-03-04T18:42:20.137Z,7.47
2018-03-04T18:44:47.694Z,7.45
2018-03-04T18:47:15.243Z,7.46
2018-03-04T18:49:46.452Z,7.45
2018-03-04T18:52:14.133Z,7.44
2018-03-04T18:54:41.644Z,7.43
2018-03-04T18:57:09.280Z,7.43
2018-03-04T18:59:36.809Z,7.42
2018-03-04T19:02:04.482Z,7.42
2018-03-04T19:04:32.014Z,7.42
2018-03-04T19:06:59.515Z,7.41
2018-03-04T19:09:27.041Z,7.42
2018-03-04T19:11:54.562Z,7.42
2018-03-04T19:14:22.084Z,7.42
2018-03-04T19:16:49.611Z,7.41
2018-03-04T19:19:17.203Z,7.41
2018-03-04T19:21:44.762Z,7.39
2018-03-04T19:24:12.294Z,7.40
2018-03-04T19:26:39.869Z,7.39
2018-03-04T19:29:07.402Z,7.37
2018-03-04T19:31:34.935Z,7.36
2018-03-04T19:34:02.432Z,7.35
2018-03-04T19:36:30.041Z,7.35
2018-03-04T19:38:57.616Z,7.34
2018-03-04T19:41:25.113Z,7.34
2018-03-04T19:43:52.733Z,7.34
2018-03-04T19:46:20.290Z,7.34
2018-03-04T19:48:47.848Z,7.33
2018-03-04T19:51:16.511Z,7.32
2018-03-04T19:53:48.353Z,7.32
2018-03-04T19:56:25.914Z,7.32
2018-03-04T20:41:24.791Z,7.25
2018-03-04T20:43:52.320Z,7.26
2018-03-04T20:46:19.905Z,7.27
2018-03-04T20:48:47.440Z,7.28
2018-03-04T20:51:14.949Z,7.28
2018-03-04T20:53:42.580Z,7.28
2018-03-04T20:56:10.108Z,7.28
2018-03-04T20:58:37.909Z,7.29
2018-03-04T21:01:05.471Z,7.30
2018-03-04T21:03:33.023Z,7.30
2018-03-04T21:06:00.691Z,7.30
2018-03-04T21:08:28.220Z,7.29
2018-03-04T21:10:55.742Z,7.29
2018-03-04T21:13:23.264Z,7.28
2018-03-04T21:15:50.800Z,7.27
2018-03-04T21:18:18.331Z,7.26
2018-03-04T21:20:45.851Z,7.26
2018-03-04T21:23:13.368Z,7.26
2018-03-04T21:25:40.869Z,7.24
2018-03-04T21:28:08.364Z,7.24
2018-03-04T21:30:35.887Z,7.21
2018-03-04T21:33:03.504Z,7.18
2018-03-04T21:35:31.042Z,7.15
2018-03-04T21:37:58.658Z,7.13
2018-03-04T21:40:26.178Z,7.11
2018-03-04T21:42:53.988Z,7.08
2018-03-04T21:45:21.512Z,7.06
2018-03-04T21:47:49.560Z,7.04
2018-03-04T21:50:17.088Z,7.02
2018-03-04T21:52:44.636Z,6.99
2018-03-04T21:55:12.226Z,6.94
2018-03-04T21:57:40.724Z,6.90
2018-03-04T22:00:08.267Z,6.85
2018-03-04T22:02:40.123Z,6.79
2018-03-04T22:05:07.703Z,6.75
2018-03-04T22:07:35.222Z,6.71
2018-03-04T22:10:02.725Z,6.68
2018-03-04T22:12:30.362Z,6.65
2018-03-04T22:14:57.971Z,6.63
2018-03-04T22:17:25.480Z,6.62
2018-03-04T22:19:53.067Z,6.62
2018-03-04T22:22:20.576Z,6.62
2018-03-04T22:24:48.100Z,6.63
2018-03-04T22:27:15.613Z,6.64
2018-03-04T22:29:43.317Z,6.65
2018-03-04T22:32:10.840Z,6.66
2018-03-04T22:34:38.343Z,6.66
2018-03-04T22:37:05.850Z,6.67
2018-03-04T22:39:33.955Z,6.68
2018-03-04T22:42:01.471Z,6.68
2018-03-04T22:44:29.014Z,6.68
2018-03-04T22:46:56.592Z,6.69
2018-03-04T22:49:24.091Z,6.70
2018-03-04T22:51:52.953Z,6.70
2018-03-04T22:54:20.439Z,6.70
2018-03-04T22:56:47.953Z,6.70
2018-03-04T22:59:15.441Z,6.70
2018-03-04T23:01:43.112Z,6.71
2018-03-04T23:04:10.615Z,6.70
2018-03-04T23:06:38.177Z,6.71
2018-03-04T23:09:05.742Z,6.72
2018-03-04T23:11:33.308Z,6.73
2018-03-04T23:14:00.888Z,6.71
2018-03-04T23:16:28.439Z,6.71
2018-03-04T23:18:55.931Z,6.72
2018-03-04T23:21:23.445Z,6.71
2018-03-04T23:23:50.951Z,6.71
2018-03-04T23:26:18.454Z,6.70
2018-03-04T23:28:45.935Z,6.71
2018-03-04T23:31:13.474Z,6.71
2018-03-04T23:33:41.028Z,6.71
2018-03-04T23:36:08.519Z,6.71
2018-03-04T23:38:36.015Z,6.70
2018-03-04T23:41:03.520Z,6.68
2018-03-04T23:43:31.052Z,6.66
2018-03-04T23:45:58.557Z,6.64
2018-03-04T23:48:26.090Z,6.62
2018-03-04T23:50:53.596Z,6.59
2018-03-04T23:53:21.096Z,6.57
2018-03-04T23:55:48.595Z,6.56
2018-03-04T23:58:16.132Z,6.56
